Maud, Missouri
Current Conditions -  °F | °C
As of 8:55 PM on Thursday 27 Nov 2014 (Local Time) from KIRK Reporting Station
Broken Clouds Broken Clouds  
Wind Chill:   Ceiling: 11000
Heat Index: 19°   Visibility: 10mi
Dew Point: 14°   Wind: 10mph
Humidity: 81%   Direction: 120°ESE
Pressure: 30.38"   Gusts: NA
Location:  39.735°N, 92.239°W
Report Text: KIRK 280255Z AUTO 12009KT 10SM BKN110 M07/M10 A3038 RMK AO2 SLP308 T10721100 58014
Loading
Personal Weather Stations






























Interactive Weather Map New forecast layout! Learn more

10-Day Weather Forecast

Advertisements
Track Severe Weather on mobile